Lake Minchumina, AK

7:41 PM AKST on March 05, 2015 (GMT -0900)
Minchumina | Change Station
CLOSE
Current Station
Airport
Location: Minchumina,
Elevation: 702 ft
Nearby Weather Stations
Active Advisory: Winter Weather Advisory

Elev 702 ft 63.89 °N, 152.30 °W | Updated 5 minutes ago

Overcast
Overcast
28 °F
Feels Like 25 °F
N
4
Wind Variable Wind from SSW

Today
High -- | Low -- °F
--% Chance of Precip.
Yesterday
High -- | Low -- °F
Precip. -- in
8:02 AM 6:40 PM
Full, 100% visible
Pressure 29.93 in
Visibility 2.5 miles
Clouds Few 1100 ft
Scattered Clouds 2500 ft
Overcast 3000 ft
Windchill 25 °F
Dew Point 27 °F
Humidity 93%
Rainfall 0.00 in
Snow Depth Not available.
UV 0 out of 12
Pollen Not available.
Air Quality Not available.
Flu Activity Not available.
METAR PAMH 060436Z AUTO 20003KT 2 1/2SM FEW011 SCT025 OVC030 M02/M03 A2993 RMK AO1

More Conditions Fewer Conditions

Pressure 29.93 in
Visibility 2.5 miles
Clouds Few 1100 ft
Scattered Clouds 2500 ft
Overcast 3000 ft
Windchill 25 °F
Dew Point 27 °F
Humidity 93%
Rainfall 0.00 in
Snow Depth Not available.
UV 0 out of 12
Pollen Not available.
Air Quality Not available.
Flu Activity Not available.
METAR PAMH 060436Z AUTO 20003KT 2 1/2SM FEW011 SCT025 OVC030 M02/M03 A2993 RMK AO1

More Conditions Fewer Conditions

10-Day Weather Forecast

Almanac

Astronomy

Mar. 05, 2015 Rise Set
Actual Time
Civil Twilight
Nautical Twilight
Astronomical Twilight
Moon
Length of Visible Light
Length of Day
Tomorrow will be .
, % of the Moon is Illuminated

Today's Extremes

State Highs State Lows

Community

WunderPhotos

Upload Photos

1,803,178 photos uploaded!

WunderBlogs® & News

Nearby

Air Quality

  Air Quality AQ Index Pollutant
Not available.

Snow Depth

Station Depth Elevation

Earthquake Activity

City Distance Mag. Time & Date
Minimum magnitude displayed is 2.5.

Coastal Water Temperatures

Place Temperature

Nearby Weather Stations

Winter Weather Advisory
Statement as of 7:20 PM AKST on March 05, 2015

... Winter Weather Advisory in effect until 6 am akst Friday...

The National Weather Service in Fairbanks has issued a Winter
Weather Advisory for snow which is in effect until 6 am akst
Friday.

* Snow... 4 to 6 inches... mainly east of Tanana.

* Timing... snow will be heaviest this evening and overnight
tapering to flurries in the morning.

* Impacts... visibility may be greatly reduced. Travel and outdoor
activities will be difficult.

Precautionary/preparedness actions...

A Winter Weather Advisory means that one or more winter weather
hazards are expected to cause travel difficulties.